createdAt,value
2023-03-12T00:02:39.294Z,62.63
2023-03-12T00:07:40.847Z,63.80
2023-03-12T00:12:42.321Z,64.43
2023-03-12T00:17:43.804Z,64.05
2023-03-12T00:22:45.561Z,64.22
2023-03-12T00:27:47.123Z,62.90
2023-03-12T00:32:48.692Z,63.00
2023-03-12T00:37:50.213Z,63.62
2023-03-12T00:42:51.680Z,63.54
2023-03-12T00:47:53.423Z,64.15
2023-03-12T00:52:55.042Z,64.93
2023-03-12T00:57:56.520Z,65.76
2023-03-12T01:02:58.141Z,65.48
2023-03-12T01:07:59.712Z,65.20
2023-03-12T01:13:01.243Z,65.03
2023-03-12T01:18:02.778Z,64.40
2023-03-12T01:23:04.401Z,64.80
2023-03-12T01:28:06.175Z,63.74
2023-03-12T01:33:07.692Z,63.93
2023-03-12T01:38:13.418Z,63.88
2023-03-12T01:43:23.211Z,63.70
2023-03-12T01:48:25.483Z,63.54
2023-03-12T01:53:28.490Z,63.82
2023-03-12T01:58:34.228Z,65.07
2023-03-12T02:03:37.007Z,65.32
2023-03-12T02:08:43.931Z,65.52
2023-03-12T02:13:46.551Z,66.52
2023-03-12T02:18:50.660Z,65.29
2023-03-12T02:24:06.831Z,65.28
2023-03-12T02:29:10.979Z,64.80
2023-03-12T02:34:12.632Z,65.30
2023-03-12T02:39:14.353Z,65.50
2023-03-12T02:44:26.764Z,65.24
2023-03-12T02:49:31.417Z,65.57
2023-03-12T02:54:34.022Z,65.58
2023-03-12T02:59:35.748Z,65.89
2023-03-12T03:04:39.167Z,65.24
2023-03-12T03:09:40.905Z,65.79
2023-03-12T03:14:42.855Z,66.69
2023-03-12T03:19:44.494Z,66.02
2023-03-12T03:24:46.136Z,65.44
2023-03-12T03:29:47.672Z,65.55
2023-03-12T03:34:49.885Z,65.77
2023-03-12T03:39:52.308Z,65.74
2023-03-12T03:44:53.898Z,66.68
2023-03-12T03:49:55.583Z,67.42
2023-03-12T03:54:57.167Z,67.04
2023-03-12T04:00:03.088Z,67.27
2023-03-12T04:05:15.264Z,68.19
2023-03-12T04:10:19.187Z,67.92
2023-03-12T04:15:20.817Z,67.56
2023-03-12T04:20:23.684Z,66.79
2023-03-12T04:25:25.317Z,67.33
2023-03-12T04:30:27.131Z,66.66
2023-03-12T04:35:28.662Z,67.18
2023-03-12T04:40:30.524Z,67.33
2023-03-12T04:45:32.458Z,67.14
2023-03-12T04:50:34.635Z,66.72
2023-03-12T04:55:36.207Z,66.34
2023-03-12T05:00:39.847Z,66.28
2023-03-12T05:05:41.579Z,66.37
2023-03-12T05:10:44.035Z,66.47
2023-03-12T05:15:47.611Z,67.21
2023-03-12T05:21:03.913Z,67.00
2023-03-12T05:26:06.769Z,66.47
2023-03-12T05:31:11.178Z,66.43
2023-03-12T05:36:15.133Z,66.41
2023-03-12T05:41:22.274Z,66.55
2023-03-12T05:46:27.211Z,66.76
2023-03-12T05:51:29.178Z,66.60
2023-03-12T05:56:31.018Z,66.07
2023-03-12T06:01:32.718Z,66.83
2023-03-12T06:06:37.206Z,66.42
2023-03-12T06:11:39.358Z,67.29
2023-03-12T06:16:41.237Z,67.15
2023-03-12T06:21:43.625Z,67.06
2023-03-12T06:26:45.978Z,67.11
2023-03-12T06:31:47.604Z,67.31
2023-03-12T06:36:49.081Z,67.80
2023-03-12T06:41:50.616Z,68.29
2023-03-12T06:46:52.093Z,68.56
2023-03-12T06:51:53.728Z,68.82
2023-03-12T06:56:55.264Z,69.53
2023-03-12T07:01:56.790Z,68.57
2023-03-12T07:06:58.381Z,69.00
2023-03-12T07:11:59.918Z,68.74
2023-03-12T07:17:01.382Z,68.95
2023-03-12T07:22:02.859Z,69.38
2023-03-12T07:27:04.324Z,69.28
2023-03-12T07:32:05.985Z,68.88
2023-03-12T07:37:07.702Z,69.23
2023-03-12T07:42:11.012Z,69.41
2023-03-12T07:47:23.267Z,70.02
2023-03-12T07:52:25.647Z,69.84
2023-03-12T07:57:27.381Z,70.12
2023-03-12T08:02:29.008Z,70.45
2023-03-12T08:07:31.089Z,71.72
2023-03-12T08:12:32.985Z,71.59
2023-03-12T08:17:34.557Z,71.69
2023-03-12T08:22:37.450Z,70.27
2023-03-12T08:27:38.988Z,69.30
2023-03-12T08:32:40.530Z,69.18
2023-03-12T08:37:42.161Z,68.60
2023-03-12T08:42:44.984Z,68.17
2023-03-12T08:47:46.498Z,68.37
2023-03-12T08:52:48.437Z,66.73
2023-03-12T08:57:50.010Z,66.79
2023-03-12T09:02:51.600Z,67.31
2023-03-12T09:07:53.098Z,66.72
2023-03-12T09:12:54.625Z,66.84
2023-03-12T09:17:56.310Z,66.67
2023-03-12T09:22:57.998Z,66.46
2023-03-12T09:27:59.423Z,65.90
2023-03-12T09:33:00.933Z,66.31
2023-03-12T09:38:03.095Z,66.37
2023-03-12T09:43:39.373Z,67.45
2023-03-12T09:48:47.760Z,67.09
2023-03-12T09:53:58.153Z,67.23
2023-03-12T09:59:00.612Z,68.03
2023-03-12T10:04:24.733Z,67.98
2023-03-12T10:09:42.260Z,67.06
2023-03-12T10:14:55.584Z,67.44
2023-03-12T10:20:38.141Z,66.33
2023-03-12T10:25:44.307Z,67.42
2023-03-12T10:30:54.725Z,66.98
2023-03-12T10:35:56.804Z,67.92
2023-03-12T10:40:58.346Z,67.56
2023-03-12T10:46:34.707Z,67.74
2023-03-12T10:51:54.309Z,68.25
2023-03-12T10:56:55.913Z,68.10
2023-03-12T11:01:58.344Z,67.26
2023-03-12T11:07:14.850Z,67.65
2023-03-12T11:12:28.397Z,67.53
2023-03-12T11:17:29.951Z,68.72
2023-03-12T11:22:34.345Z,68.67
2023-03-12T11:27:37.809Z,69.92
2023-03-12T11:32:45.926Z,69.50
2023-03-12T11:38:10.253Z,70.17
2023-03-12T11:43:43.569Z,70.73
2023-03-12T11:48:53.922Z,70.55
2023-03-12T11:54:24.064Z,68.81
2023-03-12T11:59:45.334Z,68.64
2023-03-12T12:05:01.860Z,66.02
2023-03-12T12:10:22.826Z,64.10
2023-03-12T12:15:26.970Z,63.45
2023-03-12T12:20:50.554Z,61.70
2023-03-12T12:26:11.157Z,60.46
2023-03-12T12:31:37.511Z,60.88
2023-03-12T12:36:39.103Z,61.14
2023-03-12T12:41:52.951Z,61.21
2023-03-12T12:47:00.724Z,63.43
2023-03-12T12:52:07.361Z,64.20
2023-03-12T12:57:18.352Z,64.36
2023-03-12T13:02:22.881Z,62.85
2023-03-12T13:07:27.125Z,62.89
2023-03-12T13:12:34.755Z,59.27
2023-03-12T13:17:56.142Z,59.40
2023-03-12T13:23:18.983Z,57.78
2023-03-12T13:28:26.224Z,57.63
2023-03-12T13:33:45.581Z,56.69
2023-03-12T13:39:07.077Z,55.72
2023-03-12T13:44:23.759Z,54.76
2023-03-12T13:49:26.941Z,54.27
2023-03-12T13:54:33.174Z,54.36
2023-03-12T13:59:34.782Z,53.86
2023-03-12T14:04:40.375Z,54.61
2023-03-12T14:10:03.394Z,55.62
2023-03-12T14:15:23.186Z,55.84
2023-03-12T14:20:24.877Z,55.75
2023-03-12T14:25:31.552Z,56.57
2023-03-12T14:30:44.944Z,56.81
2023-03-12T14:36:12.169Z,57.34
2023-03-12T14:41:24.259Z,54.59
2023-03-12T14:46:25.778Z,52.29
2023-03-12T14:51:30.067Z,47.60
2023-03-12T14:56:33.332Z,48.08
2023-03-12T15:01:35.306Z,43.34
2023-03-12T15:06:58.909Z,40.38
2023-03-12T15:12:17.398Z,39.77
2023-03-12T15:17:20.961Z,41.72
2023-03-12T15:22:25.034Z,45.77
2023-03-12T15:27:26.432Z,49.70
2023-03-12T15:32:28.822Z,46.94
2023-03-12T15:37:36.455Z,47.34
2023-03-12T15:42:42.672Z,49.77
2023-03-12T15:47:45.360Z,51.16
2023-03-12T15:53:26.447Z,51.72
2023-03-12T15:58:30.929Z,51.07
2023-03-12T16:03:32.422Z,50.69
2023-03-12T16:08:44.129Z,51.89
2023-03-12T16:13:48.353Z,53.79
2023-03-12T16:18:49.817Z,55.05
2023-03-12T16:23:51.658Z,55.21
2023-03-12T16:28:53.180Z,55.62
2023-03-12T16:33:54.686Z,55.73
2023-03-12T16:38:56.815Z,55.44
2023-03-12T16:43:58.975Z,55.75
2023-03-12T16:49:00.979Z,55.55
2023-03-12T16:54:10.741Z,56.23
2023-03-12T16:59:28.248Z,56.53
2023-03-12T17:04:29.810Z,56.55
2023-03-12T17:09:31.332Z,56.79
2023-03-12T17:14:33.025Z,56.98
2023-03-12T17:19:34.481Z,57.08
2023-03-12T17:24:35.991Z,57.78
2023-03-12T17:29:37.493Z,57.88
2023-03-12T17:34:38.997Z,57.54
2023-03-12T17:39:40.683Z,57.67
2023-03-12T17:44:42.206Z,58.34
2023-03-12T17:49:43.844Z,58.73
2023-03-12T17:54:45.305Z,59.29
2023-03-12T17:59:46.756Z,59.81
2023-03-12T18:04:48.412Z,59.86
2023-03-12T18:09:49.918Z,60.19
2023-03-12T18:14:51.423Z,59.74
2023-03-12T18:19:52.954Z,59.52
2023-03-12T18:24:54.581Z,59.18
2023-03-12T18:29:56.084Z,59.47
2023-03-12T18:34:57.593Z,59.95
2023-03-12T18:39:59.177Z,59.55
2023-03-12T18:45:01.054Z,59.17
2023-03-12T18:50:02.696Z,59.48
2023-03-12T18:55:04.986Z,59.53
2023-03-12T19:00:07.015Z,59.39
2023-03-12T19:05:09.054Z,59.58
2023-03-12T19:10:12.094Z,59.51
2023-03-12T19:15:13.634Z,60.14
2023-03-12T19:20:15.497Z,59.75
2023-03-12T19:25:17.157Z,60.28
2023-03-12T19:30:18.687Z,60.22
2023-03-12T19:35:20.239Z,60.54
2023-03-12T19:40:21.844Z,59.96
2023-03-12T19:45:23.433Z,61.47
2023-03-12T19:50:24.951Z,60.85
2023-03-12T19:55:26.446Z,60.38
2023-03-12T20:00:30.266Z,60.47
2023-03-12T20:05:31.855Z,60.41
2023-03-12T20:10:33.364Z,60.07
2023-03-12T20:15:34.849Z,60.21
2023-03-12T20:20:36.344Z,60.41
2023-03-12T20:25:41.420Z,60.16
2023-03-12T20:30:43.288Z,60.01
2023-03-12T20:35:44.819Z,59.97
2023-03-12T20:40:46.426Z,60.08
2023-03-12T20:45:48.048Z,59.66
2023-03-12T20:50:50.238Z,59.76
2023-03-12T20:55:51.764Z,59.53
2023-03-12T21:00:53.293Z,59.47
2023-03-12T21:06:01.370Z,59.36
2023-03-12T21:11:06.816Z,59.36
2023-03-12T21:16:08.780Z,59.60
2023-03-12T21:21:10.344Z,59.54
2023-03-12T21:26:11.900Z,59.76
2023-03-12T21:31:17.314Z,59.76
2023-03-12T21:36:18.879Z,60.15
2023-03-12T21:41:20.989Z,59.72
2023-03-12T21:46:22.528Z,59.56
2023-03-12T21:51:24.120Z,59.16
2023-03-12T21:56:25.622Z,59.60
2023-03-12T22:01:27.565Z,59.37
2023-03-12T22:06:29.404Z,59.75
2023-03-12T22:11:30.868Z,59.80
2023-03-12T22:16:32.721Z,59.73
2023-03-12T22:21:34.336Z,59.66
2023-03-12T22:26:35.792Z,60.05
2023-03-12T22:31:37.379Z,59.92
2023-03-12T22:36:39.756Z,59.71
2023-03-12T22:41:41.208Z,59.76
2023-03-12T22:46:42.766Z,59.76
2023-03-12T22:51:44.293Z,59.87
2023-03-12T22:56:45.822Z,60.24
2023-03-12T23:01:47.384Z,60.20
2023-03-12T23:06:49.032Z,60.14
2023-03-12T23:11:50.512Z,59.97
2023-03-12T23:16:52.034Z,60.38
2023-03-12T23:21:53.552Z,59.94
2023-03-12T23:26:55.094Z,59.93
2023-03-12T23:31:56.684Z,59.93
2023-03-12T23:36:58.176Z,60.44
2023-03-12T23:41:59.710Z,59.81
2023-03-12T23:47:01.155Z,60.13
2023-03-12T23:52:02.609Z,60.92
2023-03-12T23:57:04.174Z,60.66
